Time;durP1;ratioP1;P1;durP2;ratioP2;P2;SDS_P1;SDS_P2;PMS_P1;PMS_P2;Temp;Humidity;BMP_temperature;BMP_pressure;BME280_temperature;BME280_humidity;BME280_pressure;Samples;Min_cycle;Max_cycle;Signal;HPM_P1;HPM_P2
2021/03/10 00:01:14;;;;;;;;;;;21.60;32.80;;;;;;500370;237;1092;-47
2021/03/10 00:03:15;;;;;;;;;;;21.60;32.80;;;;;;500512;237;1187;-47
2021/03/10 00:05:17;;;;;;;;;;;21.60;32.80;;;;;;500491;237;946;-47
2021/03/10 00:07:18;;;;;;;;;;;21.60;32.80;;;;;;500341;237;1027;-47
2021/03/10 00:09:19;;;;;;;;;;;21.60;32.80;;;;;;500393;237;1012;-47
2021/03/10 00:11:21;;;;;;;;;;;21.60;32.80;;;;;;500399;237;1191;-47
2021/03/10 00:13:22;;;;;;;;;;;21.60;32.80;;;;;;500534;237;2179;-47
2021/03/10 00:15:23;;;;;;;;;;;21.60;32.80;;;;;;500543;237;1059;-47
2021/03/10 00:17:24;;;;;;;;;;;21.60;32.80;;;;;;500412;237;1048;-47
2021/03/10 00:19:26;;;;;;;;;;;21.60;32.80;;;;;;500406;237;1151;-46
2021/03/10 00:21:27;;;;;;;;;;;21.60;32.80;;;;;;500730;237;1023;-46
2021/03/10 00:23:28;;;;;;;;;;;21.60;32.80;;;;;;500592;237;1090;-47
2021/03/10 00:25:30;;;;;;;;;;;21.60;32.80;;;;;;500383;237;1005;-47
2021/03/10 00:27:31;;;;;;;;;;;21.70;32.80;;;;;;500595;237;966;-47
2021/03/10 00:29:32;;;;;;;;;;;21.70;32.80;;;;;;500461;237;1011;-46
2021/03/10 00:31:33;;;;;;;;;;;21.70;32.80;;;;;;500488;237;1070;-47
2021/03/10 00:33:35;;;;;;;;;;;21.70;32.80;;;;;;500482;237;2188;-47
2021/03/10 00:35:36;;;;;;;;;;;21.70;32.80;;;;;;500647;237;1130;-47
2021/03/10 00:37:37;;;;;;;;;;;21.60;32.80;;;;;;500379;237;1056;-47
2021/03/10 00:39:38;;;;;;;;;;;21.60;32.80;;;;;;500599;237;1178;-47
2021/03/10 00:41:40;;;;;;;;;;;21.70;32.80;;;;;;500373;237;1070;-47
2021/03/10 00:43:41;;;;;;;;;;;21.70;32.80;;;;;;500494;237;1064;-47
2021/03/10 00:45:42;;;;;;;;;;;21.70;32.80;;;;;;500367;237;1500;-47
2021/03/10 00:47:44;;;;;;;;;;;21.70;32.80;;;;;;500669;237;1062;-47
2021/03/10 00:49:45;;;;;;;;;;;21.70;32.80;;;;;;500441;237;1232;-47
2021/03/10 00:51:46;;;;;;;;;;;21.70;32.80;;;;;;500440;237;1448;-47
2021/03/10 00:53:47;;;;;;;;;;;21.70;32.90;;;;;;500639;237;2144;-47
2021/03/10 00:55:49;;;;;;;;;;;21.70;32.80;;;;;;500375;237;1324;-46
2021/03/10 00:57:50;;;;;;;;;;;21.70;32.90;;;;;;500883;237;1076;-47
2021/03/10 00:59:51;;;;;;;;;;;21.70;32.90;;;;;;500657;237;1038;-46
2021/03/10 01:01:53;;;;;;;;;;;21.60;32.80;;;;;;500708;237;1016;-47
2021/03/10 01:03:54;;;;;;;;;;;21.70;32.90;;;;;;500561;237;1419;-47
2021/03/10 01:05:55;;;;;;;;;;;21.70;32.90;;;;;;500369;237;1108;-47
2021/03/10 01:07:56;;;;;;;;;;;21.70;32.90;;;;;;500392;237;1131;-47
2021/03/10 01:09:58;;;;;;;;;;;21.70;32.80;;;;;;500464;237;1075;-47
2021/03/10 01:11:59;;;;;;;;;;;21.70;32.80;;;;;;500519;237;1061;-47
2021/03/10 01:14:00;;;;;;;;;;;21.70;32.90;;;;;;500697;237;2191;-47
2021/03/10 01:16:02;;;;;;;;;;;21.70;32.90;;;;;;500331;237;1061;-47
2021/03/10 01:18:03;;;;;;;;;;;21.60;32.90;;;;;;500595;237;1006;-47
2021/03/10 01:20:04;;;;;;;;;;;21.60;32.90;;;;;;500357;237;1130;-47
2021/03/10 01:22:05;;;;;;;;;;;21.60;32.90;;;;;;500394;237;1062;-46
2021/03/10 01:24:07;;;;;;;;;;;21.60;32.90;;;;;;500669;237;992;-47
2021/03/10 01:26:08;;;;;;;;;;;21.70;32.90;;;;;;500640;237;1054;-47
2021/03/10 01:28:09;;;;;;;;;;;21.60;32.80;;;;;;500723;237;1078;-47
2021/03/10 01:30:10;;;;;;;;;;;21.70;32.80;;;;;;500527;237;1033;-46
2021/03/10 01:32:12;;;;;;;;;;;21.70;32.80;;;;;;500324;237;1353;-47
2021/03/10 01:34:13;;;;;;;;;;;21.70;32.80;;;;;;500656;237;2156;-47
2021/03/10 01:36:14;;;;;;;;;;;21.70;32.70;;;;;;500330;237;1290;-47
2021/03/10 01:38:16;;;;;;;;;;;21.70;32.70;;;;;;500359;237;1120;-47
2021/03/10 01:40:17;;;;;;;;;;;21.70;32.80;;;;;;500448;237;1052;-47
2021/03/10 01:42:18;;;;;;;;;;;21.70;32.80;;;;;;500239;237;1196;-47
2021/03/10 01:44:19;;;;;;;;;;;21.70;32.80;;;;;;500427;237;1012;-47
2021/03/10 01:46:21;;;;;;;;;;;21.70;32.80;;;;;;500306;237;1495;-47
2021/03/10 01:48:22;;;;;;;;;;;21.70;32.80;;;;;;500421;237;1206;-47
2021/03/10 01:50:23;;;;;;;;;;;21.70;32.80;;;;;;500407;237;1095;-47
2021/03/10 01:52:25;;;;;;;;;;;21.70;32.80;;;;;;500444;237;1055;-47
2021/03/10 01:54:26;;;;;;;;;;;21.70;32.70;;;;;;500609;237;2145;-47
2021/03/10 01:56:27;;;;;;;;;;;21.70;32.70;;;;;;500701;237;1047;-47
2021/03/10 01:58:28;;;;;;;;;;;21.70;32.80;;;;;;500520;237;1060;-47
2021/03/10 02:00:30;;;;;;;;;;;21.70;32.80;;;;;;500737;237;1066;-46
2021/03/10 02:02:31;;;;;;;;;;;21.70;32.80;;;;;;500291;237;1318;-47
2021/03/10 02:04:32;;;;;;;;;;;21.70;32.80;;;;;;500337;237;1139;-47
2021/03/10 02:06:34;;;;;;;;;;;21.70;32.80;;;;;;500503;237;1204;-46
2021/03/10 02:08:35;;;;;;;;;;;21.70;32.80;;;;;;500398;237;1078;-46
2021/03/10 02:10:36;;;;;;;;;;;21.70;32.80;;;;;;500510;237;1081;-47
2021/03/10 02:12:37;;;;;;;;;;;21.70;32.80;;;;;;500387;237;1525;-47
2021/03/10 02:14:39;;;;;;;;;;;21.70;32.80;;;;;;500439;237;2183;-47
2021/03/10 02:16:40;;;;;;;;;;;21.70;32.80;;;;;;500564;237;1646;-47
2021/03/10 02:18:41;;;;;;;;;;;21.80;32.80;;;;;;500458;237;1287;-47
2021/03/10 02:20:43;;;;;;;;;;;21.70;32.80;;;;;;500496;237;1192;-47
2021/03/10 02:22:44;;;;;;;;;;;21.70;32.80;;;;;;500377;237;1189;-47
2021/03/10 02:24:45;;;;;;;;;;;21.70;32.80;;;;;;500438;237;1065;-47
2021/03/10 02:26:46;;;;;;;;;;;21.70;32.80;;;;;;500436;237;1225;-47
2021/03/10 02:28:48;;;;;;;;;;;21.70;32.80;;;;;;500708;237;1054;-47
2021/03/10 02:30:49;;;;;;;;;;;21.70;32.80;;;;;;500402;237;1031;-47
2021/03/10 02:32:51;;;;;;;;;;;21.70;32.80;;;;;;500764;237;1106;-47
2021/03/10 02:34:52;;;;;;;;;;;21.80;32.80;;;;;;500386;237;2137;-47
2021/03/10 02:36:53;;;;;;;;;;;21.80;32.80;;;;;;500495;237;1021;-47
2021/03/10 02:38:55;;;;;;;;;;;21.70;32.80;;;;;;500423;237;1044;-47
2021/03/10 02:40:56;;;;;;;;;;;21.80;32.80;;;;;;500721;237;1091;-47
2021/03/10 02:42:57;;;;;;;;;;;21.70;32.80;;;;;;500677;237;1082;-47
2021/03/10 02:44:58;;;;;;;;;;;21.80;32.80;;;;;;500395;237;1066;-47
2021/03/10 02:47:00;;;;;;;;;;;21.80;32.80;;;;;;500437;237;1067;-47
2021/03/10 02:49:01;;;;;;;;;;;21.80;32.80;;;;;;500640;237;1038;-47
2021/03/10 02:51:02;;;;;;;;;;;21.80;32.80;;;;;;500373;237;1179;-47
2021/03/10 02:53:04;;;;;;;;;;;21.70;32.80;;;;;;500540;237;1019;-47
2021/03/10 02:55:05;;;;;;;;;;;21.80;32.90;;;;;;500515;237;2141;-47
2021/03/10 02:57:06;;;;;;;;;;;21.70;32.80;;;;;;500401;237;1184;-47
2021/03/10 02:59:07;;;;;;;;;;;21.80;32.80;;;;;;500505;237;1071;-47
2021/03/10 03:01:09;;;;;;;;;;;21.80;32.80;;;;;;500610;237;1078;-47
2021/03/10 03:03:10;;;;;;;;;;;21.70;32.80;;;;;;500470;237;1077;-47
2021/03/10 03:05:11;;;;;;;;;;;21.80;32.80;;;;;;500547;237;1170;-47
2021/03/10 03:07:12;;;;;;;;;;;21.80;32.80;;;;;;500357;237;1056;-47
2021/03/10 03:09:14;;;;;;;;;;;21.80;32.90;;;;;;500541;237;1088;-47
2021/03/10 03:11:15;;;;;;;;;;;21.80;32.80;;;;;;500854;237;1105;-47
2021/03/10 03:13:16;;;;;;;;;;;21.80;32.80;;;;;;500376;237;981;-46
2021/03/10 03:15:18;;;;;;;;;;;21.80;32.70;;;;;;500533;237;2129;-47
2021/03/10 03:17:19;;;;;;;;;;;21.70;32.80;;;;;;500642;237;988;-47
2021/03/10 03:19:21;;;;;;;;;;;21.30;33.50;;;;;;500561;237;1050;-47
2021/03/10 03:21:22;;;;;;;;;;;20.70;34.40;;;;;;500470;237;1208;-47
2021/03/10 03:23:23;;;;;;;;;;;20.30;35.20;;;;;;500752;237;1041;-47
2021/03/10 03:25:24;;;;;;;;;;;20.10;35.70;;;;;;500409;237;1422;-47
2021/03/10 03:27:26;;;;;;;;;;;19.80;36.20;;;;;;500378;237;1065;-47
2021/03/10 03:29:27;;;;;;;;;;;19.60;36.60;;;;;;500396;237;1075;-47
2021/03/10 03:31:28;;;;;;;;;;;19.50;36.90;;;;;;500332;237;1270;-47
2021/03/10 03:33:30;;;;;;;;;;;19.30;37.10;;;;;;500579;237;1031;-47
2021/03/10 03:35:31;;;;;;;;;;;19.30;37.20;;;;;;500550;237;2137;-47
2021/03/10 03:37:32;;;;;;;;;;;19.20;37.40;;;;;;500557;237;1658;-46
2021/03/10 03:39:33;;;;;;;;;;;19.10;37.40;;;;;;500462;237;1019;-47
2021/03/10 03:41:35;;;;;;;;;;;19.00;37.60;;;;;;500373;237;1062;-47
2021/03/10 03:43:36;;;;;;;;;;;19.00;37.80;;;;;;500823;237;1180;-47
2021/03/10 03:45:37;;;;;;;;;;;19.00;37.80;;;;;;500521;237;1023;-46
2021/03/10 03:47:38;;;;;;;;;;;18.90;37.80;;;;;;500548;237;1042;-46
2021/03/10 03:49:40;;;;;;;;;;;18.90;37.90;;;;;;500733;237;1035;-47
2021/03/10 03:51:41;;;;;;;;;;;18.90;37.90;;;;;;500407;237;1405;-47
2021/03/10 03:53:42;;;;;;;;;;;18.80;37.90;;;;;;500439;237;1045;-46
2021/03/10 03:55:44;;;;;;;;;;;18.80;38.10;;;;;;500514;237;2188;-47
2021/03/10 03:57:45;;;;;;;;;;;18.80;38.20;;;;;;500299;237;1140;-47
2021/03/10 03:59:46;;;;;;;;;;;18.70;38.10;;;;;;500383;237;1036;-47
2021/03/10 04:01:47;;;;;;;;;;;18.60;38.20;;;;;;500801;237;1156;-47
2021/03/10 04:03:49;;;;;;;;;;;18.70;38.30;;;;;;500556;237;1016;-47
2021/03/10 04:05:50;;;;;;;;;;;18.60;38.40;;;;;;500338;237;1286;-47
2021/03/10 04:07:51;;;;;;;;;;;18.60;38.30;;;;;;500650;237;1130;-47
2021/03/10 04:09:53;;;;;;;;;;;18.60;38.40;;;;;;500883;237;1184;-46
2021/03/10 04:11:54;;;;;;;;;;;18.50;38.40;;;;;;500775;237;1515;-46
2021/03/10 04:13:55;;;;;;;;;;;18.50;38.40;;;;;;500855;237;1014;-46
2021/03/10 04:15:56;;;;;;;;;;;18.50;38.50;;;;;;500354;237;2192;-47
2021/03/10 04:17:58;;;;;;;;;;;18.50;38.40;;;;;;500416;237;1094;-47
2021/03/10 04:19:59;;;;;;;;;;;18.40;38.40;;;;;;500422;237;1086;-47
2021/03/10 04:22:00;;;;;;;;;;;18.40;38.50;;;;;;500411;237;1260;-47
2021/03/10 04:24:02;;;;;;;;;;;18.40;38.60;;;;;;500593;237;1041;-47
2021/03/10 04:26:03;;;;;;;;;;;18.40;38.60;;;;;;500441;237;1133;-47
2021/03/10 04:28:04;;;;;;;;;;;18.30;38.60;;;;;;500378;237;1078;-47
2021/03/10 04:30:05;;;;;;;;;;;18.40;38.60;;;;;;500391;237;1058;-47
2021/03/10 04:32:07;;;;;;;;;;;18.30;38.50;;;;;;500582;237;1111;-46
2021/03/10 04:34:08;;;;;;;;;;;18.30;38.60;;;;;;500683;237;1027;-47
2021/03/10 04:36:09;;;;;;;;;;;18.30;38.60;;;;;;500604;237;2192;-47
2021/03/10 04:38:10;;;;;;;;;;;18.30;38.60;;;;;;500722;237;1281;-46
2021/03/10 04:40:12;;;;;;;;;;;18.20;38.70;;;;;;500731;237;1126;-47
2021/03/10 04:42:13;;;;;;;;;;;18.20;38.70;;;;;;500314;237;1117;-47
2021/03/10 04:44:14;;;;;;;;;;;18.20;38.70;;;;;;500741;237;1076;-47
2021/03/10 04:46:16;;;;;;;;;;;18.20;38.70;;;;;;500377;237;1051;-46
2021/03/10 04:48:17;;;;;;;;;;;18.20;38.70;;;;;;500433;237;1078;-46
2021/03/10 04:50:19;;;;;;;;;;;18.20;38.70;;;;;;500403;237;1079;-46
2021/03/10 04:52:20;;;;;;;;;;;18.20;38.80;;;;;;500473;237;1266;-46
2021/03/10 04:54:21;;;;;;;;;;;18.20;38.80;;;;;;500405;237;1043;-47
2021/03/10 04:56:22;;;;;;;;;;;18.10;38.70;;;;;;500583;237;2180;-47
2021/03/10 04:58:24;;;;;;;;;;;18.20;38.80;;;;;;500687;237;1079;-47
2021/03/10 05:00:25;;;;;;;;;;;18.10;38.70;;;;;;500844;237;1051;-47
2021/03/10 05:02:26;;;;;;;;;;;18.10;38.80;;;;;;500426;237;1035;-46
2021/03/10 05:04:27;;;;;;;;;;;18.10;38.80;;;;;;500528;237;1029;-47
2021/03/10 05:06:29;;;;;;;;;;;18.10;38.80;;;;;;500392;237;1174;-46
2021/03/10 05:08:30;;;;;;;;;;;18.10;38.70;;;;;;500818;237;1025;-46
2021/03/10 05:10:31;;;;;;;;;;;18.10;38.70;;;;;;500455;237;950;-46
2021/03/10 05:12:33;;;;;;;;;;;18.10;38.80;;;;;;500866;237;1089;-46
2021/03/10 05:14:34;;;;;;;;;;;18.10;38.80;;;;;;500439;237;1080;-46
2021/03/10 05:16:35;;;;;;;;;;;18.00;38.80;;;;;;500383;237;2129;-46
2021/03/10 05:18:36;;;;;;;;;;;18.00;38.90;;;;;;500283;237;1200;-46
2021/03/10 05:20:38;;;;;;;;;;;18.00;38.80;;;;;;500488;237;1154;-46
2021/03/10 05:22:39;;;;;;;;;;;18.00;38.90;;;;;;500489;237;1165;-46
2021/03/10 05:24:40;;;;;;;;;;;18.00;38.80;;;;;;500601;237;1030;-46
2021/03/10 05:26:42;;;;;;;;;;;18.00;38.80;;;;;;500406;237;1075;-46
2021/03/10 05:28:43;;;;;;;;;;;18.00;38.90;;;;;;500356;237;1223;-46
2021/03/10 05:30:44;;;;;;;;;;;18.10;38.60;;;;;;500592;237;1074;-47
2021/03/10 05:32:46;;;;;;;;;;;18.50;37.90;;;;;;500280;237;1144;-46
2021/03/10 05:34:47;;;;;;;;;;;18.90;37.10;;;;;;500583;237;1088;-46
2021/03/10 05:36:48;;;;;;;;;;;19.20;36.40;;;;;;500338;237;2187;-47
2021/03/10 05:38:50;;;;;;;;;;;19.40;36.00;;;;;;500345;237;1057;-47
2021/03/10 05:40:51;;;;;;;;;;;19.60;35.70;;;;;;500395;237;1090;-47
2021/03/10 05:42:52;;;;;;;;;;;19.70;35.40;;;;;;500578;237;1033;-46
2021/03/10 05:44:53;;;;;;;;;;;19.80;35.20;;;;;;500318;237;1044;-47
2021/03/10 05:46:55;;;;;;;;;;;19.90;35.00;;;;;;500625;237;1050;-47
2021/03/10 05:48:56;;;;;;;;;;;20.00;35.00;;;;;;500214;237;1060;-47
2021/03/10 05:50:57;;;;;;;;;;;20.00;34.80;;;;;;500384;237;1040;-47
2021/03/10 05:52:58;;;;;;;;;;;20.10;34.80;;;;;;500427;237;1162;-47
2021/03/10 05:55:00;;;;;;;;;;;20.10;34.70;;;;;;500298;237;1120;-47
2021/03/10 05:57:01;;;;;;;;;;;20.20;34.60;;;;;;500174;237;2169;-47
2021/03/10 05:59:02;;;;;;;;;;;20.20;34.50;;;;;;500410;237;1082;-47
2021/03/10 06:01:04;;;;;;;;;;;20.20;34.50;;;;;;500288;237;1081;-47
2021/03/10 06:03:05;;;;;;;;;;;20.30;34.40;;;;;;500304;237;1060;-47
2021/03/10 06:05:06;;;;;;;;;;;20.30;34.30;;;;;;500373;237;940;-47
2021/03/10 06:07:08;;;;;;;;;;;20.40;34.30;;;;;;500189;237;1192;-47
2021/03/10 06:09:09;;;;;;;;;;;20.40;34.20;;;;;;500170;237;1060;-47
2021/03/10 06:11:10;;;;;;;;;;;20.50;34.20;;;;;;500201;237;1096;-47
2021/03/10 06:13:11;;;;;;;;;;;20.50;34.10;;;;;;500249;237;1162;-47
2021/03/10 06:15:13;;;;;;;;;;;20.50;34.00;;;;;;500187;237;1138;-47
2021/03/10 06:17:14;;;;;;;;;;;20.60;34.00;;;;;;500049;237;2175;-47
2021/03/10 06:19:15;;;;;;;;;;;20.60;33.90;;;;;;500115;237;1066;-47
2021/03/10 06:21:16;;;;;;;;;;;20.60;33.90;;;;;;500078;237;1216;-47
2021/03/10 06:23:18;;;;;;;;;;;20.60;33.90;;;;;;500327;237;1168;-47
2021/03/10 06:25:19;;;;;;;;;;;20.70;33.90;;;;;;500194;237;1026;-47
2021/03/10 06:27:20;;;;;;;;;;;20.70;33.80;;;;;;500189;237;1036;-47
2021/03/10 06:29:22;;;;;;;;;;;20.70;33.80;;;;;;500249;237;1244;-47
2021/03/10 06:31:23;;;;;;;;;;;20.70;33.80;;;;;;500132;237;1265;-47
2021/03/10 06:33:24;;;;;;;;;;;20.70;33.70;;;;;;500192;237;1123;-47
2021/03/10 06:35:26;;;;;;;;;;;20.70;33.70;;;;;;500296;237;2129;-47
2021/03/10 06:37:27;;;;;;;;;;;20.80;33.70;;;;;;500054;237;1116;-47
2021/03/10 06:39:28;;;;;;;;;;;20.80;33.70;;;;;;499917;237;1145;-47
2021/03/10 06:41:30;;;;;;;;;;;20.80;33.70;;;;;;500016;237;1131;-47
2021/03/10 06:43:31;;;;;;;;;;;20.80;33.60;;;;;;500101;237;1048;-47
2021/03/10 06:45:32;;;;;;;;;;;20.80;33.60;;;;;;499884;237;1156;-47
2021/03/10 06:47:33;;;;;;;;;;;20.90;33.60;;;;;;500060;237;1114;-47
2021/03/10 06:49:35;;;;;;;;;;;20.90;33.60;;;;;;499896;237;1082;-47
2021/03/10 06:51:36;;;;;;;;;;;20.90;33.60;;;;;;499861;237;1183;-46
2021/03/10 06:53:37;;;;;;;;;;;20.90;33.50;;;;;;499969;237;1244;-47
2021/03/10 06:55:39;;;;;;;;;;;20.90;33.50;;;;;;499850;237;2129;-47
2021/03/10 06:57:40;;;;;;;;;;;20.90;33.50;;;;;;500007;237;1064;-46
2021/03/10 06:59:41;;;;;;;;;;;20.90;33.50;;;;;;499946;237;1100;-47
2021/03/10 07:01:42;;;;;;;;;;;21.00;33.50;;;;;;500095;238;1073;-47
2021/03/10 07:03:44;;;;;;;;;;;21.00;33.50;;;;;;500005;237;1026;-47
2021/03/10 07:05:45;;;;;;;;;;;21.00;33.50;;;;;;499954;237;1081;-47
2021/03/10 07:07:46;;;;;;;;;;;21.00;33.40;;;;;;499874;237;1278;-47
2021/03/10 07:09:48;;;;;;;;;;;21.00;33.40;;;;;;499986;237;1208;-47
2021/03/10 07:11:49;;;;;;;;;;;21.00;33.40;;;;;;499955;237;1078;-47
2021/03/10 07:13:50;;;;;;;;;;;21.00;33.40;;;;;;499859;237;1111;-47
2021/03/10 07:15:51;;;;;;;;;;;21.00;33.40;;;;;;499796;237;2141;-47
2021/03/10 07:17:53;;;;;;;;;;;21.00;33.40;;;;;;499833;237;1172;-46
2021/03/10 07:19:54;;;;;;;;;;;21.00;33.40;;;;;;499732;237;1154;-47
2021/03/10 07:21:55;;;;;;;;;;;21.10;33.40;;;;;;499483;237;1287;-47
2021/03/10 07:23:56;;;;;;;;;;;21.10;33.40;;;;;;499887;237;1309;-47
2021/03/10 07:25:58;;;;;;;;;;;21.10;33.40;;;;;;499871;237;1352;-47
2021/03/10 07:27:59;;;;;;;;;;;21.10;33.40;;;;;;499838;237;1101;-47
2021/03/10 07:30:01;;;;;;;;;;;21.10;33.30;;;;;;499753;237;1096;-47
2021/03/10 07:32:02;;;;;;;;;;;21.10;33.30;;;;;;499733;237;1209;-47
2021/03/10 07:34:03;;;;;;;;;;;21.10;33.30;;;;;;499885;237;1057;-47
2021/03/10 07:36:05;;;;;;;;;;;21.10;33.20;;;;;;499777;237;2180;-47
2021/03/10 07:38:06;;;;;;;;;;;21.20;33.30;;;;;;499792;237;1155;-47
2021/03/10 07:40:07;;;;;;;;;;;21.20;33.30;;;;;;499978;237;1077;-47
2021/03/10 07:42:09;;;;;;;;;;;21.20;33.30;;;;;;499782;237;1156;-47
2021/03/10 07:44:10;;;;;;;;;;;21.20;33.30;;;;;;499714;237;1217;-47
2021/03/10 07:46:11;;;;;;;;;;;21.20;33.30;;;;;;499656;237;1455;-47
2021/03/10 07:48:13;;;;;;;;;;;21.20;33.20;;;;;;499467;237;1126;-47
2021/03/10 07:50:14;;;;;;;;;;;21.20;33.20;;;;;;499806;237;1161;-46
2021/03/10 07:52:15;;;;;;;;;;;21.20;33.20;;;;;;499655;237;1209;-47
2021/03/10 07:54:17;;;;;;;;;;;21.20;33.20;;;;;;499878;237;1213;-47
2021/03/10 07:56:18;;;;;;;;;;;21.20;33.30;;;;;;499888;237;2121;-47
2021/03/10 07:58:19;;;;;;;;;;;21.20;33.30;;;;;;499767;237;1092;-47
2021/03/10 08:00:20;;;;;;;;;;;21.20;33.20;;;;;;499540;237;1102;-47
2021/03/10 08:02:22;;;;;;;;;;;21.20;33.20;;;;;;499575;237;1155;-47
2021/03/10 08:04:23;;;;;;;;;;;21.20;33.20;;;;;;499567;237;1078;-47
2021/03/10 08:06:24;;;;;;;;;;;21.20;33.20;;;;;;499504;237;1057;-47
2021/03/10 08:08:26;;;;;;;;;;;21.20;33.20;;;;;;499624;237;1235;-47
2021/03/10 08:10:27;;;;;;;;;;;21.20;33.20;;;;;;499714;237;1107;-47
2021/03/10 08:12:28;;;;;;;;;;;21.20;33.20;;;;;;499678;237;1055;-47
2021/03/10 08:14:29;;;;;;;;;;;21.20;33.20;;;;;;499778;237;1076;-47
2021/03/10 08:16:31;;;;;;;;;;;21.20;33.20;;;;;;499731;237;2184;-47
2021/03/10 08:18:32;;;;;;;;;;;21.30;33.20;;;;;;499453;237;1101;-47
2021/03/10 08:20:35;;;;;;;;;;;21.30;33.20;;;;;;499458;237;1065;-47
2021/03/10 08:22:36;;;;;;;;;;;21.30;33.20;;;;;;499322;237;1087;-47
2021/03/10 08:24:37;;;;;;;;;;;21.30;33.20;;;;;;499785;237;1277;-47
2021/03/10 08:26:39;;;;;;;;;;;21.30;33.10;;;;;;499476;237;1247;-47
2021/03/10 08:28:40;;;;;;;;;;;21.30;33.20;;;;;;499258;237;1156;-47
2021/03/10 08:30:41;;;;;;;;;;;21.30;33.20;;;;;;499364;237;1061;-47
2021/03/10 08:32:42;;;;;;;;;;;21.30;33.20;;;;;;499259;237;1185;-47
2021/03/10 08:34:44;;;;;;;;;;;21.30;33.20;;;;;;499584;237;1093;-47
2021/03/10 08:36:45;;;;;;;;;;;21.30;33.10;;;;;;499547;237;2184;-47
2021/03/10 08:38:46;;;;;;;;;;;21.30;33.20;;;;;;499507;237;1255;-47
2021/03/10 08:40:48;;;;;;;;;;;21.40;33.20;;;;;;499518;237;1137;-47
2021/03/10 08:42:49;;;;;;;;;;;21.30;33.10;;;;;;499616;237;1087;-47
2021/03/10 08:44:50;;;;;;;;;;;21.30;33.10;;;;;;499590;237;1231;-47
2021/03/10 08:46:51;;;;;;;;;;;21.30;33.20;;;;;;499488;237;1654;-47
2021/03/10 08:48:53;;;;;;;;;;;21.30;33.10;;;;;;499655;237;1083;-47
2021/03/10 08:50:54;;;;;;;;;;;21.40;33.20;;;;;;499594;237;1633;-47
2021/03/10 08:52:55;;;;;;;;;;;21.40;33.10;;;;;;499408;237;1062;-47
2021/03/10 08:54:57;;;;;;;;;;;21.40;33.10;;;;;;499409;237;1161;-47
2021/03/10 08:56:58;;;;;;;;;;;21.40;33.10;;;;;;499458;237;2175;-47
2021/03/10 08:58:59;;;;;;;;;;;21.40;33.10;;;;;;499590;237;1106;-47
2021/03/10 09:01:00;;;;;;;;;;;21.40;33.10;;;;;;499475;237;1358;-47
2021/03/10 09:03:02;;;;;;;;;;;21.40;33.10;;;;;;499489;237;1045;-47
2021/03/10 09:05:03;;;;;;;;;;;21.40;33.10;;;;;;499519;237;1095;-47
2021/03/10 09:07:04;;;;;;;;;;;21.40;33.20;;;;;;499480;237;1133;-47
2021/03/10 09:09:05;;;;;;;;;;;21.40;33.10;;;;;;499324;237;1177;-47
2021/03/10 09:11:07;;;;;;;;;;;21.40;33.10;;;;;;499272;237;1093;-47
2021/03/10 09:13:08;;;;;;;;;;;21.40;33.10;;;;;;499471;237;1167;-47
2021/03/10 09:15:09;;;;;;;;;;;21.40;33.10;;;;;;499503;237;1060;-47
2021/03/10 09:17:11;;;;;;;;;;;21.50;33.10;;;;;;499377;237;2184;-47
2021/03/10 09:19:12;;;;;;;;;;;21.50;33.00;;;;;;499593;237;1129;-47
2021/03/10 09:21:14;;;;;;;;;;;21.50;33.10;;;;;;499500;237;1081;-47
2021/03/10 09:23:15;;;;;;;;;;;21.50;33.00;;;;;;499486;237;1139;-47
2021/03/10 09:25:16;;;;;;;;;;;21.50;33.00;;;;;;499476;237;1276;-47
2021/03/10 09:27:17;;;;;;;;;;;21.50;33.00;;;;;;499471;237;1309;-47
2021/03/10 09:29:19;;;;;;;;;;;21.60;33.10;;;;;;499588;237;1224;-47
2021/03/10 09:31:20;;;;;;;;;;;21.60;32.90;;;;;;499625;237;1086;-47
2021/03/10 09:33:21;;;;;;;;;;;21.60;32.90;;;;;;499566;237;1077;-47
2021/03/10 09:35:23;;;;;;;;;;;21.60;33.00;;;;;;499650;237;1179;-47
2021/03/10 09:37:24;;;;;;;;;;;21.60;33.00;;;;;;499768;237;2140;-47
2021/03/10 09:39:25;;;;;;;;;;;21.60;33.00;;;;;;499514;237;1138;-47
2021/03/10 09:41:26;;;;;;;;;;;21.70;33.00;;;;;;499571;237;1064;-47
2021/03/10 09:43:28;;;;;;;;;;;21.60;32.90;;;;;;499640;237;1165;-47
2021/03/10 09:45:29;;;;;;;;;;;21.60;32.90;;;;;;499631;237;1211;-47
2021/03/10 09:47:30;;;;;;;;;;;21.70;33.00;;;;;;499532;237;1101;-47
2021/03/10 09:49:32;;;;;;;;;;;21.70;33.00;;;;;;499524;237;1119;-47
2021/03/10 09:51:33;;;;;;;;;;;21.70;32.90;;;;;;499493;237;1163;-47
2021/03/10 09:53:34;;;;;;;;;;;21.70;33.00;;;;;;499635;237;1148;-47
2021/03/10 09:55:36;;;;;;;;;;;21.70;33.00;;;;;;499557;237;1151;-47
2021/03/10 09:57:37;;;;;;;;;;;21.70;32.90;;;;;;500003;237;2176;-47
2021/03/10 09:59:38;;;;;;;;;;;21.70;32.90;;;;;;499544;237;1124;-47
2021/03/10 10:01:39;;;;;;;;;;;21.70;32.90;;;;;;499437;237;1155;-47
2021/03/10 10:03:41;;;;;;;;;;;21.70;32.90;;;;;;499511;237;1079;-47
2021/03/10 10:05:42;;;;;;;;;;;21.70;32.90;;;;;;499392;237;1226;-47
2021/03/10 10:07:43;;;;;;;;;;;21.70;32.80;;;;;;499438;237;1295;-47
2021/03/10 10:09:45;;;;;;;;;;;21.70;32.80;;;;;;499489;237;1185;-47
2021/03/10 10:11:46;;;;;;;;;;;21.70;32.80;;;;;;499474;237;1219;-47
2021/03/10 10:13:48;;;;;;;;;;;21.80;32.90;;;;;;499685;237;1101;-47
2021/03/10 10:15:49;;;;;;;;;;;21.80;32.90;;;;;;499535;237;1057;-47
2021/03/10 10:17:50;;;;;;;;;;;21.80;32.90;;;;;;499495;237;2176;-47
2021/03/10 10:19:51;;;;;;;;;;;21.70;32.80;;;;;;499562;237;1120;-47
2021/03/10 10:21:53;;;;;;;;;;;21.80;32.90;;;;;;499608;237;1081;-47
2021/03/10 10:23:56;;;;;;;;;;;21.80;32.80;;;;;;499460;237;1129;-47
2021/03/10 10:25:55;;;;;;;;;;;21.80;32.80;;;;;;499431;237;1396;-47
2021/03/10 10:27:57;;;;;;;;;;;21.80;32.80;;;;;;499536;237;1215;-47
2021/03/10 10:29:58;;;;;;;;;;;21.80;32.80;;;;;;499610;237;1061;-47
2021/03/10 10:31:59;;;;;;;;;;;21.80;32.80;;;;;;499582;237;1107;-47
2021/03/10 10:34:00;;;;;;;;;;;21.80;32.80;;;;;;499637;237;1065;-47
2021/03/10 10:36:02;;;;;;;;;;;21.80;32.90;;;;;;499602;237;1103;-47
2021/03/10 10:38:03;;;;;;;;;;;21.80;32.90;;;;;;499528;237;2168;-46
2021/03/10 10:40:04;;;;;;;;;;;21.90;32.80;;;;;;499540;234;1333;-47
2021/03/10 10:42:05;;;;;;;;;;;21.90;32.90;;;;;;499557;237;1259;-47
2021/03/10 10:44:07;;;;;;;;;;;21.90;32.80;;;;;;499631;237;1139;-47
2021/03/10 10:46:08;;;;;;;;;;;21.90;32.80;;;;;;499460;237;1214;-47
2021/03/10 10:48:09;;;;;;;;;;;21.90;32.80;;;;;;499441;237;1136;-47
2021/03/10 10:50:11;;;;;;;;;;;21.90;32.80;;;;;;499476;237;1125;-47
2021/03/10 10:52:12;;;;;;;;;;;21.90;32.80;;;;;;499445;237;1157;-47
2021/03/10 10:54:13;;;;;;;;;;;21.90;32.80;;;;;;499454;237;1141;-47
2021/03/10 10:56:14;;;;;;;;;;;21.90;32.80;;;;;;499354;237;1194;-47
2021/03/10 10:58:16;;;;;;;;;;;21.90;32.80;;;;;;499490;237;2180;-47
2021/03/10 11:00:17;;;;;;;;;;;21.90;32.80;;;;;;499426;237;1081;-47
2021/03/10 11:02:18;;;;;;;;;;;21.90;32.80;;;;;;499254;237;1256;-47
2021/03/10 11:04:20;;;;;;;;;;;21.90;32.80;;;;;;499403;237;1189;-47
2021/03/10 11:06:21;;;;;;;;;;;21.90;32.80;;;;;;499478;237;1231;-47
2021/03/10 11:08:22;;;;;;;;;;;21.90;32.80;;;;;;499524;237;1143;-47
2021/03/10 11:10:24;;;;;;;;;;;21.90;32.80;;;;;;499554;237;1272;-47
2021/03/10 11:12:25;;;;;;;;;;;21.90;32.80;;;;;;499580;237;1245;-47
2021/03/10 11:14:26;;;;;;;;;;;21.90;32.80;;;;;;499622;237;1064;-47
2021/03/10 11:16:28;;;;;;;;;;;22.00;32.80;;;;;;499658;237;1282;-47
2021/03/10 11:18:29;;;;;;;;;;;22.00;32.80;;;;;;499566;237;2175;-47
2021/03/10 11:20:30;;;;;;;;;;;22.00;32.80;;;;;;499623;237;1228;-47
2021/03/10 11:22:32;;;;;;;;;;;22.10;32.60;;;;;;499553;237;1168;-47
2021/03/10 11:24:33;;;;;;;;;;;21.80;33.00;;;;;;499415;237;1100;-47
2021/03/10 11:26:34;;;;;;;;;;;21.30;33.80;;;;;;499411;237;1258;-47
2021/03/10 11:28:36;;;;;;;;;;;20.90;34.60;;;;;;499532;237;1138;-47
2021/03/10 11:30:37;;;;;;;;;;;20.60;35.20;;;;;;499604;237;1299;-47
2021/03/10 11:32:38;;;;;;;;;;;20.30;35.60;;;;;;499889;237;1292;-47
2021/03/10 11:34:40;;;;;;;;;;;20.20;35.80;;;;;;499758;237;1114;-47
2021/03/10 11:36:41;;;;;;;;;;;20.10;36.10;;;;;;499603;237;1201;-47
2021/03/10 11:38:42;;;;;;;;;;;20.00;36.30;;;;;;500412;237;2207;-47
2021/03/10 11:40:44;;;;;;;;;;;19.90;36.40;;;;;;499565;237;1271;-47
2021/03/10 11:42:45;;;;;;;;;;;19.90;36.50;;;;;;499786;237;1262;-47
2021/03/10 11:44:46;;;;;;;;;;;19.80;36.60;;;;;;499581;237;1176;-47
2021/03/10 11:46:47;;;;;;;;;;;19.70;36.70;;;;;;499398;237;1217;-47
2021/03/10 11:48:49;;;;;;;;;;;19.70;36.80;;;;;;499366;237;1062;-46
2021/03/10 11:50:50;;;;;;;;;;;19.70;36.90;;;;;;499134;237;1323;-47
2021/03/10 11:52:51;;;;;;;;;;;19.60;36.90;;;;;;499351;237;1149;-47
2021/03/10 11:54:53;;;;;;;;;;;19.60;36.90;;;;;;499430;237;1127;-47
2021/03/10 11:56:54;;;;;;;;;;;19.60;36.90;;;;;;499281;237;1248;-47